createdAt,value
2023-03-15T00:00:19.048Z,2.30
2023-03-15T00:01:19.042Z,3.00
2023-03-15T00:02:19.042Z,2.20
2023-03-15T00:03:19.043Z,1.20
2023-03-15T00:04:18.990Z,1.60
2023-03-15T00:05:19.010Z,3.20
2023-03-15T00:06:18.984Z,1.90
2023-03-15T00:07:18.971Z,2.00
2023-03-15T00:08:19.127Z,1.80
2023-03-15T00:09:18.938Z,1.00
2023-03-15T00:10:18.928Z,1.00
2023-03-15T00:11:18.927Z,3.30
2023-03-15T00:12:18.899Z,1.50
2023-03-15T00:13:18.893Z,3.80
2023-03-15T00:14:18.873Z,1.00
2023-03-15T00:15:18.876Z,2.50
2023-03-15T00:16:19.018Z,3.30
2023-03-15T00:17:18.848Z,2.60
2023-03-15T00:18:18.827Z,1.90
2023-03-15T00:19:18.830Z,1.40
2023-03-15T00:20:18.800Z,2.10
2023-03-15T00:21:18.789Z,2.70
2023-03-15T00:22:18.793Z,2.00
2023-03-15T00:23:18.775Z,1.40
2023-03-15T00:24:18.783Z,2.30
2023-03-15T00:25:18.749Z,1.70
2023-03-15T00:26:18.738Z,2.40
2023-03-15T00:27:18.729Z,2.40
2023-03-15T00:28:18.729Z,3.20
2023-03-15T00:29:18.697Z,2.00
2023-03-15T00:30:18.683Z,1.60
2023-03-15T00:31:18.708Z,2.80
2023-03-15T00:32:18.663Z,2.10
2023-03-15T00:33:18.642Z,3.60
2023-03-15T00:34:18.619Z,0.90
2023-03-15T00:35:18.617Z,2.80
2023-03-15T00:36:18.593Z,1.30
2023-03-15T00:37:18.598Z,2.60
2023-03-15T00:38:18.598Z,1.60
2023-03-15T00:39:18.570Z,3.60
2023-03-15T00:40:18.546Z,1.70
2023-03-15T00:41:18.559Z,1.60
2023-03-15T00:42:18.556Z,1.20
2023-03-15T00:43:18.542Z,1.90
2023-03-15T00:44:18.498Z,1.60
2023-03-15T00:45:18.521Z,1.00
2023-03-15T00:46:18.522Z,2.50
2023-03-15T00:47:18.473Z,1.80
2023-03-15T00:48:18.476Z,2.60
2023-03-15T00:49:18.445Z,5.20
2023-03-15T00:50:18.422Z,3.40
2023-03-15T00:51:18.420Z,2.90
2023-03-15T00:52:18.399Z,2.60
2023-03-15T00:53:18.397Z,2.60
2023-03-15T00:54:18.375Z,4.50
2023-03-15T00:55:18.402Z,2.60
2023-03-15T00:56:18.343Z,5.40
2023-03-15T00:57:18.337Z,3.50
2023-03-15T00:58:18.338Z,4.80
2023-03-15T00:59:18.315Z,1.20
2023-03-15T01:00:18.313Z,1.30
2023-03-15T01:01:18.312Z,2.10
2023-03-15T01:02:18.263Z,2.00
2023-03-15T01:03:18.277Z,1.60
2023-03-15T01:04:18.263Z,2.20
2023-03-15T01:05:18.233Z,1.70
2023-03-15T01:06:18.259Z,1.40
2023-03-15T01:07:18.215Z,1.50
2023-03-15T01:08:18.202Z,0.80
2023-03-15T01:09:18.194Z,0.60
2023-03-15T01:10:18.170Z,1.50
2023-03-15T01:11:18.157Z,1.20
2023-03-15T01:12:18.194Z,1.20
2023-03-15T01:13:18.153Z,0.70
2023-03-15T01:14:18.133Z,1.80
2023-03-15T01:15:18.113Z,1.20
2023-03-15T01:16:18.144Z,1.70
2023-03-15T01:17:18.086Z,1.60
2023-03-15T01:18:18.062Z,1.00
2023-03-15T01:19:18.083Z,1.90
2023-03-15T01:20:18.055Z,1.00
2023-03-15T01:21:18.031Z,2.50
2023-03-15T01:22:18.022Z,1.50
2023-03-15T01:23:18.006Z,1.80
2023-03-15T01:24:18.001Z,0.90
2023-03-15T01:25:17.981Z,1.10
2023-03-15T01:26:18.011Z,1.90
2023-03-15T01:27:17.956Z,1.20
2023-03-15T01:28:17.943Z,1.90
2023-03-15T01:29:17.989Z,1.50
2023-03-15T01:30:17.911Z,0.60
2023-03-15T01:31:17.959Z,0.60
2023-03-15T01:32:17.887Z,0.40
2023-03-15T01:33:17.873Z,1.10
2023-03-15T01:34:17.901Z,1.20
2023-03-15T01:35:17.865Z,0.70
2023-03-15T01:36:17.843Z,2.10
2023-03-15T01:37:17.824Z,0.30
2023-03-15T01:38:17.807Z,1.70
2023-03-15T01:39:17.803Z,0.50
2023-03-15T01:40:17.807Z,0.50
2023-03-15T01:41:17.791Z,1.50
2023-03-15T01:42:17.761Z,0.50
2023-03-15T01:43:17.748Z,0.90
2023-03-15T01:44:17.760Z,0.80
2023-03-15T01:45:17.712Z,1.10
2023-03-15T01:46:17.841Z,0.80
2023-03-15T01:47:17.709Z,0.70
2023-03-15T01:48:17.689Z,0.70
2023-03-15T01:49:17.680Z,2.10
2023-03-15T01:50:17.676Z,0.60
2023-03-15T01:51:17.666Z,0.90
2023-03-15T01:52:17.646Z,0.80
2023-03-15T01:53:17.618Z,0.40
2023-03-15T01:54:17.642Z,0.40
2023-03-15T01:55:17.608Z,0.60
2023-03-15T01:56:17.582Z,0.50
2023-03-15T01:57:17.567Z,0.60
2023-03-15T01:58:17.561Z,0.30
2023-03-15T01:59:17.567Z,0.40
2023-03-15T02:00:17.548Z,1.00
2023-03-15T02:01:17.547Z,0.40
2023-03-15T02:02:17.537Z,0.30
2023-03-15T02:03:17.516Z,0.70
2023-03-15T02:04:17.478Z,0.30
2023-03-15T02:05:17.473Z,0.30
2023-03-15T02:06:17.469Z,0.50
2023-03-15T02:07:17.468Z,0.30
2023-03-15T02:08:17.432Z,0.30
2023-03-15T02:09:17.422Z,0.70
2023-03-15T02:10:17.411Z,1.20
2023-03-15T02:11:17.384Z,1.10
2023-03-15T02:12:17.400Z,0.50
2023-03-15T02:13:17.365Z,0.40
2023-03-15T02:14:17.359Z,0.50
2023-03-15T02:15:17.354Z,0.40
2023-03-15T02:16:17.422Z,0.40
2023-03-15T02:17:17.318Z,0.70
2023-03-15T02:18:17.328Z,0.80
2023-03-15T02:19:17.288Z,1.00
2023-03-15T02:20:17.297Z,0.80
2023-03-15T02:21:17.288Z,1.40
2023-03-15T02:22:17.260Z,1.30
2023-03-15T02:23:17.244Z,0.50
2023-03-15T02:24:17.235Z,0.70
2023-03-15T02:25:17.244Z,0.70
2023-03-15T02:26:17.209Z,0.60
2023-03-15T02:27:17.215Z,0.50
2023-03-15T02:28:17.174Z,1.40
2023-03-15T02:29:17.154Z,1.00
2023-03-15T02:30:17.163Z,1.20
2023-03-15T02:31:17.156Z,0.70
2023-03-15T02:32:17.125Z,0.70
2023-03-15T02:33:17.111Z,0.80
2023-03-15T02:34:17.110Z,0.70
2023-03-15T02:35:17.089Z,1.10
2023-03-15T02:36:17.085Z,0.80
2023-03-15T02:37:17.062Z,1.10
2023-03-15T02:38:17.069Z,0.90
2023-03-15T02:39:17.049Z,1.30
2023-03-15T02:40:17.040Z,0.80
2023-03-15T02:41:17.019Z,0.90
2023-03-15T02:42:17.021Z,0.90
2023-03-15T02:43:16.977Z,1.10
2023-03-15T02:44:16.976Z,0.90
2023-03-15T02:45:17.018Z,1.10
2023-03-15T02:46:17.024Z,1.50
2023-03-15T02:47:16.962Z,1.50
2023-03-15T02:48:16.934Z,1.10
2023-03-15T02:49:16.911Z,1.50
2023-03-15T02:50:16.931Z,1.10
2023-03-15T02:51:16.897Z,1.70
2023-03-15T02:52:16.873Z,1.30
2023-03-15T02:53:16.856Z,2.60
2023-03-15T02:54:16.862Z,1.30
2023-03-15T02:55:16.855Z,1.10
2023-03-15T02:56:16.833Z,0.90
2023-03-15T02:57:16.821Z,1.70
2023-03-15T02:58:16.808Z,1.20
2023-03-15T02:59:16.799Z,1.10
2023-03-15T03:00:16.778Z,1.10
2023-03-15T03:01:17.005Z,1.30
2023-03-15T03:02:16.770Z,1.00
2023-03-15T03:03:16.741Z,2.20
2023-03-15T03:04:16.741Z,1.00
2023-03-15T03:05:16.717Z,1.40
2023-03-15T03:06:16.716Z,2.80
2023-03-15T03:07:16.706Z,2.60
2023-03-15T03:08:16.756Z,2.30
2023-03-15T03:09:16.665Z,1.10
2023-03-15T03:10:16.644Z,2.50
2023-03-15T03:11:16.637Z,1.40
2023-03-15T03:12:16.621Z,2.70
2023-03-15T03:13:16.608Z,1.90
2023-03-15T03:14:16.592Z,2.40
2023-03-15T03:15:16.597Z,1.60
2023-03-15T03:16:16.639Z,2.30
2023-03-15T03:17:16.559Z,2.20
2023-03-15T03:18:16.547Z,1.90
2023-03-15T03:19:16.537Z,1.80
2023-03-15T03:20:16.522Z,1.20
2023-03-15T03:21:16.513Z,2.50
2023-03-15T03:22:16.502Z,1.90
2023-03-15T03:23:16.480Z,2.60
2023-03-15T03:24:16.464Z,1.90
2023-03-15T03:25:16.441Z,1.20
2023-03-15T03:26:16.486Z,1.60
2023-03-15T03:27:16.424Z,1.70
2023-03-15T03:28:16.419Z,3.00
2023-03-15T03:29:16.455Z,1.30
2023-03-15T03:30:16.390Z,1.40
2023-03-15T03:31:16.434Z,1.90
2023-03-15T03:32:16.372Z,1.40
2023-03-15T03:33:16.362Z,1.80
2023-03-15T03:34:16.349Z,1.80
2023-03-15T03:35:16.391Z,1.70
2023-03-15T03:36:16.309Z,1.50
2023-03-15T03:37:16.297Z,1.60
2023-03-15T03:38:16.310Z,2.20
2023-03-15T03:39:16.267Z,3.60
2023-03-15T03:40:16.251Z,3.70
2023-03-15T03:41:16.285Z,4.40
2023-03-15T03:42:16.255Z,2.80
2023-03-15T03:43:16.217Z,2.60
2023-03-15T03:44:16.221Z,3.40
2023-03-15T03:45:16.194Z,2.80
2023-03-15T03:46:16.310Z,2.60
2023-03-15T03:47:16.171Z,2.80
2023-03-15T03:48:16.205Z,4.20
2023-03-15T03:49:16.160Z,3.30
2023-03-15T03:50:16.146Z,4.20
2023-03-15T03:51:16.162Z,2.30
2023-03-15T03:52:16.131Z,6.00
2023-03-15T03:53:16.084Z,3.90
2023-03-15T03:54:17.680Z,3.00
2023-03-15T03:55:16.072Z,3.50
2023-03-15T03:56:16.068Z,5.10
2023-03-15T03:57:16.062Z,4.70
2023-03-15T03:58:16.036Z,4.90
2023-03-15T03:59:16.018Z,4.90
2023-03-15T04:00:16.038Z,5.40
2023-03-15T04:01:15.983Z,3.40
2023-03-15T04:02:16.046Z,5.00
2023-03-15T04:03:15.961Z,2.70
2023-03-15T04:04:15.978Z,2.10
2023-03-15T04:05:15.942Z,2.00
2023-03-15T04:06:15.924Z,3.30
2023-03-15T04:07:17.083Z,2.90
2023-03-15T04:08:15.896Z,2.30
2023-03-15T04:09:15.886Z,3.40
2023-03-15T04:10:15.902Z,3.30
2023-03-15T04:11:15.859Z,2.30
2023-03-15T04:12:15.975Z,3.60
2023-03-15T04:13:15.858Z,3.10
2023-03-15T04:14:15.825Z,3.40
2023-03-15T04:15:15.819Z,3.10
2023-03-15T04:16:15.854Z,4.10
2023-03-15T04:17:15.783Z,2.70
2023-03-15T04:18:15.776Z,2.80
2023-03-15T04:19:15.781Z,3.60
2023-03-15T04:20:15.763Z,2.70
2023-03-15T04:21:15.733Z,3.00
2023-03-15T04:22:15.723Z,3.50
2023-03-15T04:23:15.759Z,4.00
2023-03-15T04:24:15.710Z,4.50
2023-03-15T04:25:15.691Z,2.10
2023-03-15T04:26:15.690Z,3.40
2023-03-15T04:27:15.675Z,2.70
2023-03-15T04:28:15.686Z,2.70
2023-03-15T04:29:15.656Z,3.60
2023-03-15T04:30:15.628Z,3.50
2023-03-15T04:31:15.630Z,2.10
2023-03-15T04:32:15.620Z,4.80
2023-03-15T04:33:15.590Z,3.00
2023-03-15T04:34:15.576Z,2.80
2023-03-15T04:35:15.587Z,3.30
2023-03-15T04:36:15.551Z,2.70
2023-03-15T04:37:15.535Z,3.20
2023-03-15T04:38:15.544Z,3.80
2023-03-15T04:39:15.531Z,2.60
2023-03-15T04:40:15.518Z,4.80
2023-03-15T04:41:15.487Z,5.60
2023-03-15T04:42:15.496Z,3.10
2023-03-15T04:43:15.471Z,4.40
2023-03-15T04:44:15.452Z,3.90
2023-03-15T04:45:15.435Z,3.00
2023-03-15T04:46:15.495Z,4.00
2023-03-15T04:47:15.413Z,5.60
2023-03-15T04:48:15.410Z,7.70
2023-03-15T04:49:15.391Z,5.10
2023-03-15T04:50:15.375Z,4.00
2023-03-15T04:51:15.360Z,3.70
2023-03-15T04:52:15.368Z,5.70
2023-03-15T04:53:15.349Z,8.80
2023-03-15T04:54:15.336Z,2.50
2023-03-15T04:55:15.332Z,5.10
2023-03-15T04:56:15.302Z,6.60
2023-03-15T04:57:15.300Z,4.90
2023-03-15T04:58:15.300Z,5.70
2023-03-15T04:59:15.292Z,3.10
2023-03-15T05:00:15.264Z,5.40
2023-03-15T05:01:15.298Z,5.00
2023-03-15T05:02:15.264Z,5.50
2023-03-15T05:03:15.217Z,6.10
2023-03-15T05:04:15.201Z,6.80
2023-03-15T05:05:15.203Z,6.50
2023-03-15T05:06:15.176Z,4.20
2023-03-15T05:07:15.188Z,6.70
2023-03-15T05:08:15.161Z,5.10
2023-03-15T05:09:15.139Z,4.90
2023-03-15T05:10:15.116Z,4.50
2023-03-15T05:11:15.111Z,7.70
2023-03-15T05:12:15.125Z,6.10
2023-03-15T05:13:15.098Z,5.40
2023-03-15T05:14:15.092Z,4.30
2023-03-15T05:15:15.124Z,9.00
2023-03-15T05:16:15.106Z,7.80
2023-03-15T05:17:15.028Z,11.80
2023-03-15T05:18:15.061Z,9.50
2023-03-15T05:19:15.033Z,7.90
2023-03-15T05:20:15.031Z,7.40
2023-03-15T05:21:14.993Z,10.20
2023-03-15T05:22:14.989Z,6.00
2023-03-15T05:23:14.968Z,9.20
2023-03-15T05:24:14.956Z,7.70
2023-03-15T05:25:14.938Z,5.00
2023-03-15T05:26:14.945Z,9.60
2023-03-15T05:27:14.914Z,8.90
2023-03-15T05:28:14.899Z,6.00
2023-03-15T05:29:14.946Z,9.10
2023-03-15T05:30:14.882Z,5.80
2023-03-15T05:31:14.862Z,6.20
2023-03-15T05:32:14.856Z,6.70
2023-03-15T05:33:14.832Z,3.30
2023-03-15T05:34:14.839Z,7.00
2023-03-15T05:35:14.810Z,6.80
2023-03-15T05:36:21.306Z,6.10
2023-03-15T05:37:14.781Z,8.40
2023-03-15T05:38:14.778Z,9.20
2023-03-15T05:39:15.905Z,11.90
2023-03-15T05:40:14.749Z,6.70
2023-03-15T05:41:14.737Z,8.90
2023-03-15T05:42:14.715Z,5.90
2023-03-15T05:43:14.712Z,11.80
2023-03-15T05:44:14.697Z,4.90
2023-03-15T05:45:14.683Z,9.20
2023-03-15T05:46:14.757Z,6.40
2023-03-15T05:47:14.670Z,5.50
2023-03-15T05:48:14.659Z,5.40
2023-03-15T05:49:14.640Z,8.10
2023-03-15T05:50:14.614Z,8.80
2023-03-15T05:51:14.602Z,5.30
2023-03-15T05:52:14.583Z,4.90
2023-03-15T05:53:14.583Z,6.70
2023-03-15T05:54:14.590Z,5.40
2023-03-15T05:55:14.559Z,6.00
2023-03-15T05:56:14.551Z,6.60
2023-03-15T05:57:14.540Z,8.70
2023-03-15T05:58:14.530Z,12.80
2023-03-15T05:59:14.546Z,9.90
2023-03-15T06:00:14.528Z,6.60
2023-03-15T06:01:14.474Z,6.30
2023-03-15T06:02:14.488Z,9.70
2023-03-15T06:03:14.500Z,7.90
2023-03-15T06:04:14.474Z,8.10
2023-03-15T06:05:14.442Z,6.70
2023-03-15T06:06:14.476Z,8.40
2023-03-15T06:07:14.415Z,8.50
2023-03-15T06:08:14.430Z,7.50
2023-03-15T06:09:14.444Z,5.80
2023-03-15T06:10:14.467Z,9.80
2023-03-15T06:11:14.371Z,7.40
2023-03-15T06:12:14.331Z,7.70
2023-03-15T06:13:16.561Z,6.30
2023-03-15T06:14:14.313Z,6.70
2023-03-15T06:15:14.317Z,6.10
2023-03-15T06:16:14.340Z,6.90
2023-03-15T06:17:14.279Z,9.20
2023-03-15T06:18:14.256Z,7.40
2023-03-15T06:19:14.265Z,10.80
2023-03-15T06:20:14.257Z,6.30
2023-03-15T06:21:14.280Z,6.90
2023-03-15T06:22:14.200Z,7.60
2023-03-15T06:23:14.203Z,7.00
2023-03-15T06:24:14.182Z,10.30
2023-03-15T06:25:14.213Z,7.20
2023-03-15T06:26:14.311Z,8.50
2023-03-15T06:27:14.146Z,6.00
2023-03-15T06:28:14.158Z,5.30
2023-03-15T06:29:14.122Z,9.30
2023-03-15T06:30:16.637Z,5.60
2023-03-15T06:31:14.163Z,7.10
2023-03-15T06:32:14.130Z,7.70
2023-03-15T06:33:14.096Z,6.60
2023-03-15T06:34:14.067Z,5.80
2023-03-15T06:35:14.053Z,9.30
2023-03-15T06:36:14.035Z,6.10
2023-03-15T06:37:16.337Z,5.60
2023-03-15T06:38:14.079Z,5.90
2023-03-15T06:39:14.014Z,8.00
2023-03-15T06:40:14.002Z,6.00
2023-03-15T06:41:13.984Z,7.40
2023-03-15T06:42:13.959Z,5.30
2023-03-15T06:43:13.953Z,5.80
2023-03-15T06:44:13.953Z,7.70
2023-03-15T06:45:13.937Z,8.50
2023-03-15T06:46:13.948Z,7.50
2023-03-15T06:47:13.894Z,12.10
2023-03-15T06:48:13.897Z,6.00
2023-03-15T06:49:13.868Z,7.30
2023-03-15T06:50:13.862Z,8.70
2023-03-15T06:51:13.861Z,6.10
2023-03-15T06:52:13.848Z,10.90
2023-03-15T06:53:13.833Z,8.50
2023-03-15T06:54:13.829Z,7.00
2023-03-15T06:55:13.813Z,7.10
2023-03-15T06:56:13.784Z,9.10
2023-03-15T06:57:13.822Z,8.30
2023-03-15T06:58:13.770Z,11.30
2023-03-15T06:59:13.751Z,8.60
2023-03-15T07:00:13.734Z,8.10
2023-03-15T07:01:13.747Z,7.30
2023-03-15T07:02:13.795Z,8.30
2023-03-15T07:03:13.709Z,9.70
2023-03-15T07:04:13.685Z,6.30
2023-03-15T07:05:13.693Z,8.60
2023-03-15T07:06:13.671Z,8.50
2023-03-15T07:07:13.652Z,7.40
2023-03-15T07:08:13.649Z,12.10
2023-03-15T07:09:13.627Z,8.20
2023-03-15T07:10:13.608Z,8.10
2023-03-15T07:11:13.600Z,14.20
2023-03-15T07:12:13.610Z,9.40
2023-03-15T07:13:13.595Z,10.40
2023-03-15T07:14:13.555Z,7.10
2023-03-15T07:15:14.219Z,8.20
2023-03-15T07:16:13.581Z,9.10
2023-03-15T07:17:13.537Z,9.60
2023-03-15T07:18:13.513Z,13.40
2023-03-15T07:19:13.498Z,8.70
2023-03-15T07:20:13.507Z,10.30
2023-03-15T07:21:13.472Z,11.30
2023-03-15T07:22:13.494Z,9.10
2023-03-15T07:23:13.499Z,7.40
2023-03-15T07:24:13.446Z,8.90
2023-03-15T07:25:13.418Z,10.70
2023-03-15T07:26:13.427Z,9.80
2023-03-15T07:27:15.393Z,11.50
2023-03-15T07:28:13.394Z,8.30
2023-03-15T07:29:13.373Z,10.20
2023-03-15T07:30:13.370Z,11.00
2023-03-15T07:31:13.349Z,10.00
2023-03-15T07:32:13.471Z,10.50
2023-03-15T07:33:13.388Z,10.00
2023-03-15T07:34:13.303Z,12.20
2023-03-15T07:35:13.590Z,13.30
2023-03-15T07:36:13.536Z,10.70
2023-03-15T07:37:13.269Z,10.50
2023-03-15T07:38:13.353Z,9.00
2023-03-15T07:39:13.250Z,10.90
2023-03-15T07:40:13.266Z,12.10
2023-03-15T07:41:13.213Z,15.50
2023-03-15T07:42:13.198Z,11.20
2023-03-15T07:43:13.225Z,11.20
2023-03-15T07:44:13.176Z,12.00
2023-03-15T07:45:13.199Z,12.20
2023-03-15T07:46:13.202Z,12.90
2023-03-15T07:47:13.196Z,10.90
2023-03-15T07:48:13.130Z,12.00
2023-03-15T07:49:13.142Z,10.80
2023-03-15T07:50:14.617Z,9.80
2023-03-15T07:51:13.098Z,11.50
2023-03-15T07:52:13.074Z,10.60
2023-03-15T07:53:13.091Z,13.70
2023-03-15T07:54:13.048Z,11.90
2023-03-15T07:55:13.058Z,12.90
2023-03-15T07:56:13.021Z,14.00
2023-03-15T07:57:13.064Z,14.40
2023-03-15T07:58:13.027Z,12.00
2023-03-15T07:59:12.990Z,17.50
2023-03-15T08:00:12.967Z,12.70
2023-03-15T08:01:12.974Z,12.50
2023-03-15T08:02:13.000Z,13.40
2023-03-15T08:03:13.073Z,14.50
2023-03-15T08:04:12.923Z,11.70
2023-03-15T08:05:12.941Z,13.60
2023-03-15T08:06:12.887Z,13.80
2023-03-15T08:07:12.894Z,12.90
2023-03-15T08:08:12.863Z,14.10
2023-03-15T08:09:12.903Z,12.10
2023-03-15T08:10:12.839Z,14.10
2023-03-15T08:11:12.857Z,12.30
2023-03-15T08:12:12.811Z,14.00
2023-03-15T08:13:12.822Z,14.30
2023-03-15T08:14:12.793Z,11.70
2023-03-15T08:15:12.858Z,12.70
2023-03-15T08:16:12.836Z,13.30
2023-03-15T08:17:12.752Z,11.00
2023-03-15T08:18:12.760Z,12.70
2023-03-15T08:19:12.763Z,13.60
2023-03-15T08:20:12.720Z,11.70
2023-03-15T08:21:12.706Z,10.80
2023-03-15T08:22:12.706Z,16.10
2023-03-15T08:23:12.680Z,14.40
2023-03-15T08:24:12.694Z,11.70
2023-03-15T08:25:12.661Z,12.00
2023-03-15T08:26:12.646Z,16.50
2023-03-15T08:27:12.627Z,13.90
2023-03-15T08:28:13.166Z,14.50
2023-03-15T08:29:12.630Z,11.90
2023-03-15T08:30:12.585Z,15.30
2023-03-15T08:31:12.644Z,13.70
2023-03-15T08:32:12.569Z,11.40
2023-03-15T08:33:12.623Z,11.20
2023-03-15T08:34:12.563Z,14.00
2023-03-15T08:35:15.146Z,12.50
2023-03-15T08:36:12.556Z,11.10
2023-03-15T08:37:12.507Z,13.80
2023-03-15T08:38:12.505Z,12.80
2023-03-15T08:39:12.518Z,11.20
2023-03-15T08:40:12.465Z,13.40
2023-03-15T08:41:12.461Z,10.90
2023-03-15T08:42:12.454Z,10.70
2023-03-15T08:43:12.429Z,10.40
2023-03-15T08:44:12.408Z,11.10
2023-03-15T08:45:12.423Z,13.00
2023-03-15T08:46:12.468Z,11.90
2023-03-15T08:47:12.398Z,10.10
2023-03-15T08:48:12.359Z,8.90
2023-03-15T08:49:12.346Z,10.70
2023-03-15T08:50:12.366Z,11.50
2023-03-15T08:51:12.338Z,11.90
2023-03-15T08:52:12.310Z,10.60
2023-03-15T08:53:12.313Z,12.70
2023-03-15T08:54:12.300Z,14.20
2023-03-15T08:55:12.296Z,8.40
2023-03-15T08:56:12.266Z,11.90
2023-03-15T08:57:12.326Z,12.90
2023-03-15T08:58:12.248Z,10.10
2023-03-15T08:59:19.222Z,12.10
2023-03-15T09:00:12.234Z,8.50
2023-03-15T09:01:12.216Z,9.30
2023-03-15T09:02:12.292Z,10.00
2023-03-15T09:03:12.186Z,8.60
2023-03-15T09:04:12.201Z,10.10
2023-03-15T09:05:12.178Z,11.70
2023-03-15T09:06:12.140Z,10.90
2023-03-15T09:07:12.136Z,10.90
2023-03-15T09:08:12.105Z,10.30
2023-03-15T09:09:12.122Z,9.70
2023-03-15T09:10:12.131Z,12.80
2023-03-15T09:11:12.079Z,10.80
2023-03-15T09:12:12.049Z,7.60
2023-03-15T09:13:12.043Z,6.40
2023-03-15T09:14:12.026Z,9.50
2023-03-15T09:15:12.079Z,8.20
2023-03-15T09:16:12.644Z,13.80
2023-03-15T09:17:12.097Z,7.50
2023-03-15T09:18:11.978Z,13.10
2023-03-15T09:19:11.999Z,10.00
2023-03-15T09:20:11.958Z,12.10
2023-03-15T09:21:11.950Z,9.80
2023-03-15T09:22:16.785Z,11.50
2023-03-15T09:23:11.959Z,8.70
2023-03-15T09:24:11.912Z,12.60
2023-03-15T09:25:11.897Z,10.70
2023-03-15T09:26:11.927Z,9.80
2023-03-15T09:27:11.890Z,8.90
2023-03-15T09:28:11.861Z,10.00
2023-03-15T09:29:11.900Z,10.60
2023-03-15T09:30:11.841Z,11.30
2023-03-15T09:31:11.855Z,16.80
2023-03-15T09:32:11.855Z,13.40
2023-03-15T09:33:11.811Z,14.00
2023-03-15T09:34:11.825Z,7.30
2023-03-15T09:35:11.781Z,7.70
2023-03-15T09:36:12.548Z,11.50
2023-03-15T09:37:11.765Z,11.00
2023-03-15T09:38:11.746Z,9.30
2023-03-15T09:39:11.732Z,10.50
2023-03-15T09:40:11.829Z,9.20
2023-03-15T09:41:11.805Z,10.30
2023-03-15T09:42:11.705Z,10.00
2023-03-15T09:43:11.708Z,11.20
2023-03-15T09:44:11.663Z,9.20
2023-03-15T09:45:11.645Z,10.00
2023-03-15T09:46:11.691Z,8.50
2023-03-15T09:47:11.624Z,9.30
2023-03-15T09:48:11.609Z,10.60
2023-03-15T09:49:11.611Z,15.00
2023-03-15T09:50:11.597Z,12.10
2023-03-15T09:51:11.576Z,8.70
2023-03-15T09:52:11.598Z,10.20
2023-03-15T09:53:11.541Z,9.10
2023-03-15T09:54:11.544Z,9.00
2023-03-15T09:55:11.517Z,7.70
2023-03-15T09:56:11.526Z,9.70
2023-03-15T09:57:11.516Z,10.80
2023-03-15T09:58:11.498Z,8.10
2023-03-15T09:59:11.475Z,6.70
2023-03-15T10:00:11.502Z,10.90
2023-03-15T10:01:11.477Z,8.10
2023-03-15T10:02:11.441Z,8.50
2023-03-15T10:03:11.437Z,6.80
2023-03-15T10:04:11.494Z,9.20
2023-03-15T10:05:11.449Z,10.30
2023-03-15T10:06:11.432Z,13.40
2023-03-15T10:07:11.404Z,9.00
2023-03-15T10:08:11.364Z,9.10
2023-03-15T10:09:11.365Z,11.90
2023-03-15T10:10:11.334Z,10.90
2023-03-15T10:11:11.319Z,12.50
2023-03-15T10:12:11.334Z,11.30
2023-03-15T10:13:11.300Z,9.40
2023-03-15T10:14:11.289Z,9.10
2023-03-15T10:15:11.273Z,9.20
2023-03-15T10:16:11.302Z,14.60
2023-03-15T10:17:11.255Z,8.90
2023-03-15T10:18:11.246Z,9.00
2023-03-15T10:19:11.216Z,11.00
2023-03-15T10:20:11.203Z,10.60
2023-03-15T10:21:11.187Z,8.70
2023-03-15T10:22:11.209Z,12.20
2023-03-15T10:23:11.201Z,11.90
2023-03-15T10:24:11.362Z,10.50
2023-03-15T10:25:11.151Z,9.80
2023-03-15T10:26:12.134Z,8.20
2023-03-15T10:27:11.126Z,10.30
2023-03-15T10:28:11.129Z,11.30
2023-03-15T10:29:11.095Z,10.60
2023-03-15T10:30:11.094Z,10.00
2023-03-15T10:31:15.680Z,7.50
2023-03-15T10:32:11.076Z,16.00
2023-03-15T10:33:11.045Z,9.30
2023-03-15T10:34:11.034Z,9.30
2023-03-15T10:35:11.009Z,12.80
2023-03-15T10:36:11.779Z,12.10
2023-03-15T10:37:12.011Z,11.90
2023-03-15T10:38:10.985Z,10.80
2023-03-15T10:39:10.997Z,9.10
2023-03-15T10:40:10.963Z,7.70
2023-03-15T10:41:11.560Z,6.00
2023-03-15T10:42:10.923Z,8.70
2023-03-15T10:43:10.909Z,7.10
2023-03-15T10:44:10.904Z,9.30
2023-03-15T10:45:10.887Z,11.60
2023-03-15T10:46:10.871Z,11.90
2023-03-15T10:47:22.482Z,7.80
2023-03-15T10:48:10.922Z,8.10
2023-03-15T10:49:11.685Z,10.40
2023-03-15T10:50:10.837Z,6.00
2023-03-15T10:51:12.092Z,10.00
2023-03-15T10:52:10.790Z,8.00
2023-03-15T10:53:10.801Z,6.10
2023-03-15T10:54:10.847Z,8.80
2023-03-15T10:55:10.768Z,6.50
2023-03-15T10:56:10.753Z,8.40
2023-03-15T10:57:10.734Z,5.90
2023-03-15T10:58:10.730Z,8.90
2023-03-15T10:59:13.004Z,5.00
2023-03-15T11:00:10.698Z,6.20
2023-03-15T11:01:10.693Z,6.80
2023-03-15T11:02:10.671Z,6.40
2023-03-15T11:03:10.866Z,7.60
2023-03-15T11:04:10.710Z,5.40
2023-03-15T11:05:13.420Z,5.60
2023-03-15T11:06:11.403Z,6.70
2023-03-15T11:07:10.771Z,4.50
2023-03-15T11:08:10.649Z,4.00
2023-03-15T11:09:10.675Z,5.50
2023-03-15T11:10:10.747Z,7.40
2023-03-15T11:11:10.614Z,4.90
2023-03-15T11:12:10.698Z,9.10
2023-03-15T11:13:10.612Z,6.00
2023-03-15T11:14:10.673Z,6.00
2023-03-15T11:15:10.572Z,6.00
2023-03-15T11:16:10.625Z,5.90
2023-03-15T11:17:10.530Z,2.10
2023-03-15T11:18:10.501Z,3.30
2023-03-15T11:19:10.487Z,10.10
2023-03-15T11:20:10.480Z,3.40
2023-03-15T11:21:10.463Z,4.50
2023-03-15T11:22:10.455Z,5.20
2023-03-15T11:23:10.412Z,4.10
2023-03-15T11:24:10.383Z,8.10
2023-03-15T11:25:10.394Z,5.70
2023-03-15T11:26:12.303Z,3.80
2023-03-15T11:27:10.393Z,3.40
2023-03-15T11:28:10.333Z,3.10
2023-03-15T11:29:10.348Z,3.50
2023-03-15T11:30:10.326Z,6.00
2023-03-15T11:31:10.313Z,3.70
2023-03-15T11:32:10.286Z,3.20
2023-03-15T11:33:10.265Z,2.30
2023-03-15T11:34:10.261Z,5.70
2023-03-15T11:35:10.257Z,2.20
2023-03-15T11:36:12.314Z,4.30
2023-03-15T11:37:19.026Z,4.00
2023-03-15T11:38:15.740Z,3.80
2023-03-15T11:39:10.220Z,2.40
2023-03-15T11:40:12.272Z,6.40
2023-03-15T11:41:10.181Z,3.60
2023-03-15T11:42:11.218Z,4.50
2023-03-15T11:43:10.162Z,3.90
2023-03-15T11:44:10.140Z,5.90
2023-03-15T11:45:10.116Z,6.00
2023-03-15T11:46:10.176Z,2.70
2023-03-15T11:47:10.113Z,5.40
2023-03-15T11:48:10.081Z,3.00
2023-03-15T11:49:10.086Z,2.50
2023-03-15T11:50:10.086Z,2.80
2023-03-15T11:51:10.062Z,3.00
2023-03-15T11:52:10.037Z,3.90
2023-03-15T11:53:10.015Z,3.20
2023-03-15T11:54:10.012Z,4.30
2023-03-15T11:55:10.001Z,4.60
2023-03-15T11:56:10.002Z,3.10
2023-03-15T11:57:09.969Z,4.50
2023-03-15T11:58:09.973Z,4.70
2023-03-15T11:59:09.988Z,2.40
2023-03-15T12:00:09.972Z,3.80
2023-03-15T12:01:09.941Z,6.00
2023-03-15T12:02:10.126Z,2.30
2023-03-15T12:03:10.429Z,4.30
2023-03-15T12:04:09.883Z,3.70
2023-03-15T12:05:18.031Z,3.40
2023-03-15T12:06:09.875Z,5.30
2023-03-15T12:07:09.913Z,3.00
2023-03-15T12:08:09.842Z,1.90
2023-03-15T12:09:09.819Z,2.40
2023-03-15T12:10:09.830Z,4.50
2023-03-15T12:11:09.837Z,2.60
2023-03-15T12:12:09.775Z,2.30
2023-03-15T12:13:09.794Z,5.10
2023-03-15T12:14:09.778Z,3.20
2023-03-15T12:15:09.765Z,1.00
2023-03-15T12:16:09.783Z,2.20
2023-03-15T12:17:09.748Z,7.90
2023-03-15T12:18:09.700Z,3.10
2023-03-15T12:19:09.714Z,3.40
2023-03-15T12:20:09.683Z,2.20
2023-03-15T12:21:09.657Z,3.40
2023-03-15T12:22:09.689Z,1.80
2023-03-15T12:23:09.643Z,2.50
2023-03-15T12:24:09.629Z,2.70
2023-03-15T12:25:09.674Z,6.20
2023-03-15T12:26:09.636Z,3.20
2023-03-15T12:27:09.591Z,3.60
2023-03-15T12:28:09.581Z,4.20
2023-03-15T12:29:09.559Z,2.60
2023-03-15T12:30:09.628Z,2.10
2023-03-15T12:31:09.632Z,4.00
2023-03-15T12:32:09.536Z,1.40
2023-03-15T12:33:09.512Z,4.50
2023-03-15T12:34:09.495Z,2.00
2023-03-15T12:35:09.475Z,2.00
2023-03-15T12:36:09.577Z,1.90
2023-03-15T12:37:09.466Z,2.70
2023-03-15T12:38:09.439Z,3.40
2023-03-15T12:39:09.438Z,4.50
2023-03-15T12:40:09.428Z,4.80
2023-03-15T12:41:09.394Z,2.30
2023-03-15T12:42:09.423Z,2.20
2023-03-15T12:43:09.410Z,2.50
2023-03-15T12:44:09.374Z,1.70
2023-03-15T12:45:09.354Z,5.20
2023-03-15T12:46:09.396Z,2.60
2023-03-15T12:47:09.343Z,4.10
2023-03-15T12:48:09.366Z,2.70
2023-03-15T12:49:09.344Z,5.30
2023-03-15T12:50:09.290Z,1.70
2023-03-15T12:51:09.293Z,3.70
2023-03-15T12:52:09.333Z,4.10
2023-03-15T12:53:09.264Z,4.10
2023-03-15T12:54:09.258Z,2.60
2023-03-15T12:55:09.230Z,3.40
2023-03-15T12:56:09.230Z,3.10
2023-03-15T12:57:09.262Z,3.00
2023-03-15T12:58:09.211Z,2.40
2023-03-15T12:59:09.175Z,2.60
2023-03-15T13:00:09.166Z,3.00
2023-03-15T13:01:09.215Z,3.80
2023-03-15T13:02:09.191Z,2.60
2023-03-15T13:03:09.220Z,1.90
2023-03-15T13:04:09.155Z,2.90
2023-03-15T13:05:09.103Z,2.40
2023-03-15T13:06:09.114Z,1.60
2023-03-15T13:07:09.087Z,2.00
2023-03-15T13:08:09.089Z,5.50
2023-03-15T13:09:09.060Z,1.50
2023-03-15T13:10:09.048Z,2.30
2023-03-15T13:11:09.042Z,6.60
2023-03-15T13:12:09.016Z,4.20